Aviation Digital Data Service (ADDS)

Output produced by METARs form (1306 UTC 19 January 2019)
found at http://www.aviationweather.gov/metar/data/
 
Forecast for: EHAM (AMSTERDAM/SCHIPH, NL)
Text: TAF EHAM 191112Z 1912/2018 12010KT CAVOK
Forecast period: 1200 UTC 19 January 2019 to 0300 UTC 20 January 2019
Forecast type: FROM: standard forecast or significant change
Winds: from the ESE (120 degrees) at 12 MPH (10 knots; 5.1 m/s)
Visibility: 6 or more miles 10+ km)
Ceiling: unknown
Clouds: missing
Weather: NSW  (no significant weather)
Text: BECMG 2003/2006 08005KT
Forecast period: 0300 to 1800 UTC 20 January 2019
Forecast type: BECOMING: Conditions expected to become as follows by 0600 UTC 20 January 2019
Winds: from the E (80 degrees) at 6 MPH (5 knots; 2.6 m/s)
Visibility: 6 or more miles 10+ km)
Ceiling: unknown
Clouds: missing
Weather: NSW  (no significant weather)